createdAt,value
2019-03-28T00:00:12.690Z,8.40
2019-03-28T00:02:43.800Z,8.40
2019-03-28T00:05:13.326Z,8.40
2019-03-28T00:07:42.788Z,8.40
2019-03-28T00:10:12.226Z,8.40
2019-03-28T00:12:41.739Z,8.50
2019-03-28T00:15:11.258Z,8.40
2019-03-28T00:17:40.729Z,8.50
2019-03-28T00:20:10.520Z,8.40
2019-03-28T00:22:44.587Z,8.40
2019-03-28T00:25:19.322Z,8.40
2019-03-28T00:27:48.813Z,8.40
2019-03-28T00:30:19.649Z,8.40
2019-03-28T00:32:49.124Z,8.40
2019-03-28T00:35:18.569Z,8.40
2019-03-28T00:37:48.096Z,8.40
2019-03-28T00:40:17.610Z,8.40
2019-03-28T00:42:47.086Z,8.40
2019-03-28T00:45:16.674Z,8.40
2019-03-28T00:47:46.155Z,8.50
2019-03-28T00:50:15.902Z,8.40
2019-03-28T00:52:45.446Z,8.50
2019-03-28T00:55:15.067Z,8.50
2019-03-28T00:57:44.666Z,8.60
2019-03-28T01:00:14.762Z,8.50
2019-03-28T01:02:44.463Z,8.50
2019-03-28T01:05:15.790Z,8.50
2019-03-28T01:07:45.474Z,8.50
2019-03-28T01:10:15.462Z,8.50
2019-03-28T01:12:44.889Z,8.50
2019-03-28T01:15:14.461Z,8.40
2019-03-28T01:17:44.113Z,8.50
2019-03-28T01:20:13.842Z,8.50
2019-03-28T01:22:43.306Z,8.50
2019-03-28T01:25:12.960Z,8.50
2019-03-28T01:27:42.501Z,8.40
2019-03-28T01:30:12.085Z,8.40
2019-03-28T01:32:43.217Z,8.40
2019-03-28T01:35:12.712Z,8.40
2019-03-28T01:37:42.193Z,8.40
2019-03-28T01:40:12.022Z,8.40
2019-03-28T01:42:41.610Z,8.50
2019-03-28T01:45:11.185Z,8.50
2019-03-28T01:47:40.766Z,8.40
2019-03-28T01:50:10.378Z,8.40
2019-03-28T01:52:40.040Z,8.40
2019-03-28T01:55:10.081Z,8.40
2019-03-28T01:57:39.608Z,8.40
2019-03-28T02:00:10.749Z,8.40
2019-03-28T02:02:40.232Z,8.40
2019-03-28T02:05:10.125Z,8.40
2019-03-28T02:07:39.593Z,8.50
2019-03-28T02:10:09.476Z,8.40
2019-03-28T02:12:38.942Z,8.40
2019-03-28T02:15:09.287Z,8.40
2019-03-28T02:17:38.952Z,8.40
2019-03-28T02:20:10.300Z,8.40
2019-03-28T02:22:40.035Z,8.40
2019-03-28T02:25:09.746Z,8.40
2019-03-28T02:27:39.345Z,8.30
2019-03-28T02:30:09.483Z,8.30
2019-03-28T02:32:38.993Z,8.30
2019-03-28T02:35:08.810Z,8.30
2019-03-28T02:37:38.273Z,8.30
2019-03-28T02:40:08.389Z,8.30
2019-03-28T02:42:38.207Z,8.20
2019-03-28T02:45:08.393Z,8.30
2019-03-28T02:47:37.828Z,8.30
2019-03-28T02:50:08.361Z,8.30
2019-03-28T02:52:37.975Z,8.30
2019-03-28T02:55:07.619Z,8.30
2019-03-28T02:57:41.531Z,8.30
2019-03-28T03:00:09.325Z,8.30
2019-03-28T03:02:38.784Z,8.30
2019-03-28T03:05:09.204Z,8.30
2019-03-28T03:07:40.199Z,8.30
2019-03-28T03:10:11.039Z,8.30
2019-03-28T03:12:40.566Z,8.30
2019-03-28T03:15:10.615Z,8.30
2019-03-28T03:17:40.139Z,8.30
2019-03-28T03:20:10.530Z,8.30
2019-03-28T03:22:40.013Z,8.30
2019-03-28T03:25:10.899Z,8.20
2019-03-28T03:27:56.171Z,8.20
2019-03-28T03:30:12.618Z,8.20
2019-03-28T03:32:42.280Z,8.20
2019-03-28T03:35:12.211Z,8.20
2019-03-28T03:37:41.694Z,8.20
2019-03-28T03:40:12.535Z,8.20
2019-03-28T03:42:42.190Z,8.20
2019-03-28T03:45:12.025Z,8.20
2019-03-28T03:47:41.495Z,8.20
2019-03-28T03:50:14.038Z,8.10
2019-03-28T03:52:44.605Z,8.00
2019-03-28T03:55:14.294Z,8.00
2019-03-28T03:57:43.703Z,7.90
2019-03-28T04:00:16.298Z,7.90
2019-03-28T04:02:45.854Z,7.90
2019-03-28T04:05:15.261Z,8.00
2019-03-28T04:07:44.862Z,7.90
2019-03-28T04:10:14.820Z,7.90
2019-03-28T04:12:44.303Z,8.00
2019-03-28T04:15:13.878Z,7.90
2019-03-28T04:17:43.321Z,7.80
2019-03-28T04:20:13.154Z,7.90
2019-03-28T04:22:42.598Z,7.80
2019-03-28T04:25:12.445Z,7.80
2019-03-28T04:27:44.120Z,7.80
2019-03-28T04:30:14.022Z,7.80
2019-03-28T04:32:43.436Z,7.70
2019-03-28T04:35:12.899Z,7.70
2019-03-28T04:37:42.486Z,7.70
2019-03-28T04:40:12.363Z,7.60
2019-03-28T04:42:45.458Z,7.60
2019-03-28T04:45:13.045Z,7.50
2019-03-28T04:47:42.481Z,7.50
2019-03-28T04:50:12.465Z,7.40
2019-03-28T04:52:41.977Z,7.30
2019-03-28T04:55:12.190Z,7.30
2019-03-28T04:57:41.633Z,7.20
2019-03-28T05:00:11.616Z,7.10
2019-03-28T05:02:41.186Z,7.10
2019-03-28T05:05:10.873Z,7.10
2019-03-28T05:07:40.398Z,7.20
2019-03-28T05:10:11.231Z,7.20
2019-03-28T05:12:40.671Z,7.20
2019-03-28T05:15:11.258Z,7.20
2019-03-28T05:17:40.961Z,7.20
2019-03-28T05:20:13.056Z,7.30
2019-03-28T05:22:42.114Z,7.30
2019-03-28T05:25:11.786Z,7.30
2019-03-28T05:27:41.235Z,7.40
2019-03-28T05:30:11.229Z,7.40
2019-03-28T05:32:40.778Z,7.50
2019-03-28T05:35:10.735Z,7.50
2019-03-28T05:37:40.349Z,7.60
2019-03-28T05:40:10.017Z,7.60
2019-03-28T05:42:40.638Z,7.70
2019-03-28T05:45:11.118Z,7.80
2019-03-28T05:47:40.582Z,7.80
2019-03-28T05:50:10.179Z,7.80
2019-03-28T05:52:41.184Z,7.90
2019-03-28T05:55:10.838Z,7.90
2019-03-28T05:57:40.351Z,7.90
2019-03-28T06:00:10.382Z,8.00
2019-03-28T06:02:40.449Z,8.10
2019-03-28T06:05:10.082Z,8.20
2019-03-28T06:07:39.529Z,8.40
2019-03-28T06:10:10.356Z,8.40
2019-03-28T06:12:40.016Z,8.40
2019-03-28T06:15:09.920Z,8.50
2019-03-28T06:17:39.376Z,8.60
2019-03-28T06:20:10.286Z,8.70
2019-03-28T06:22:39.878Z,8.70
2019-03-28T06:25:09.814Z,8.80
2019-03-28T06:27:39.332Z,8.80
2019-03-28T06:30:09.538Z,8.90
2019-03-28T06:32:43.069Z,9.00
2019-03-28T06:35:10.925Z,9.00
2019-03-28T06:37:40.404Z,9.20
2019-03-28T06:40:10.300Z,9.20
2019-03-28T06:42:39.836Z,9.30
2019-03-28T06:45:09.631Z,9.30
2019-03-28T06:47:39.145Z,9.30
2019-03-28T06:50:08.870Z,9.30
2019-03-28T06:52:38.454Z,9.40
2019-03-28T06:55:08.713Z,9.40
2019-03-28T06:57:38.172Z,9.50
2019-03-28T07:00:09.994Z,9.50
2019-03-28T07:02:39.460Z,9.60
2019-03-28T07:05:09.072Z,9.80
2019-03-28T07:07:38.636Z,10.00
2019-03-28T07:10:08.470Z,10.20
2019-03-28T07:12:38.070Z,10.40
2019-03-28T07:15:09.003Z,10.50
2019-03-28T07:17:38.490Z,10.70
2019-03-28T07:20:09.349Z,11.10
2019-03-28T07:22:38.983Z,12.40
2019-03-28T07:25:08.725Z,13.30
2019-03-28T07:27:38.369Z,14.00
2019-03-28T07:30:10.836Z,14.10
2019-03-28T07:32:43.167Z,14.60
2019-03-28T07:35:11.774Z,14.80
2019-03-28T07:37:41.263Z,14.50
2019-03-28T07:40:11.639Z,13.80
2019-03-28T07:42:41.125Z,13.00
2019-03-28T07:45:10.818Z,12.50
2019-03-28T07:47:41.570Z,12.10
2019-03-28T07:50:11.930Z,11.80
2019-03-28T07:52:41.540Z,11.60
2019-03-28T07:55:11.282Z,11.30
2019-03-28T07:57:41.427Z,11.10
2019-03-28T08:00:12.338Z,11.00
2019-03-28T08:02:43.589Z,11.00
2019-03-28T08:05:13.977Z,11.20
2019-03-28T08:07:45.318Z,11.10
2019-03-28T08:10:15.127Z,11.00
2019-03-28T08:12:44.786Z,10.90
2019-03-28T08:15:15.024Z,11.00
2019-03-28T08:17:44.802Z,11.00
2019-03-28T08:20:14.929Z,11.10
2019-03-28T08:22:44.536Z,11.10
2019-03-28T08:25:14.670Z,11.20
2019-03-28T08:27:44.206Z,11.20
2019-03-28T08:30:18.777Z,11.20
2019-03-28T08:32:46.099Z,11.60
2019-03-28T08:35:17.163Z,11.90
2019-03-28T08:37:46.840Z,12.10
2019-03-28T08:40:19.327Z,12.40
2019-03-28T08:42:48.873Z,12.20
2019-03-28T08:45:18.334Z,12.20
2019-03-28T08:47:47.811Z,12.40
2019-03-28T08:50:18.459Z,12.40
2019-03-28T08:52:48.000Z,12.40
2019-03-28T08:55:17.471Z,12.50
2019-03-28T08:57:46.998Z,12.50
2019-03-28T09:00:32.130Z,12.50
2019-03-28T09:02:49.513Z,12.30
2019-03-28T09:05:18.997Z,12.40
2019-03-28T09:07:48.603Z,12.30
2019-03-28T09:10:18.239Z,12.40
2019-03-28T09:12:47.787Z,12.60
2019-03-28T09:15:17.492Z,12.60
2019-03-28T09:17:47.021Z,13.00
2019-03-28T09:20:16.862Z,13.70
2019-03-28T09:22:46.392Z,14.30
2019-03-28T09:25:16.099Z,14.40
2019-03-28T09:27:45.675Z,14.20
2019-03-28T09:30:17.222Z,14.30
2019-03-28T09:32:46.793Z,14.30
2019-03-28T09:35:19.374Z,14.10
2019-03-28T09:37:49.083Z,14.10
2019-03-28T09:40:18.619Z,14.00
2019-03-28T09:42:48.165Z,14.00
2019-03-28T09:45:17.705Z,13.80
2019-03-28T09:47:48.716Z,13.90
2019-03-28T09:50:19.739Z,13.90
2019-03-28T09:52:49.365Z,14.20
2019-03-28T09:55:20.366Z,14.10
2019-03-28T09:57:49.944Z,14.00
2019-03-28T10:00:22.492Z,13.60
2019-03-28T10:02:52.297Z,13.30
2019-03-28T10:05:21.846Z,12.90
2019-03-28T10:07:51.389Z,12.80
2019-03-28T10:10:20.874Z,12.50
2019-03-28T10:12:50.490Z,12.40
2019-03-28T10:15:20.337Z,12.40
2019-03-28T10:17:49.881Z,12.50
2019-03-28T10:20:19.363Z,12.40
2019-03-28T10:22:48.894Z,12.40
2019-03-28T10:25:20.320Z,12.60
2019-03-28T10:27:49.840Z,12.90
2019-03-28T10:30:22.487Z,13.20
2019-03-28T10:32:51.994Z,13.30
2019-03-28T10:35:27.173Z,13.30
2019-03-28T10:37:56.840Z,13.30
2019-03-28T10:40:26.517Z,13.30
2019-03-28T10:42:56.046Z,13.40
2019-03-28T10:45:25.692Z,13.40
2019-03-28T10:47:55.287Z,13.10
2019-03-28T10:50:24.846Z,13.10
2019-03-28T10:52:54.431Z,13.10
2019-03-28T10:55:25.502Z,13.20
2019-03-28T10:57:54.989Z,13.30
2019-03-28T11:00:25.364Z,13.20
2019-03-28T11:02:55.387Z,13.40
2019-03-28T11:05:27.105Z,13.50
2019-03-28T11:07:56.568Z,13.50
2019-03-28T11:10:26.658Z,13.50
2019-03-28T11:12:57.421Z,13.70
2019-03-28T11:15:26.927Z,13.80
2019-03-28T11:17:56.497Z,13.90
2019-03-28T11:20:26.174Z,13.80
2019-03-28T11:22:55.869Z,13.80
2019-03-28T11:25:25.442Z,13.60
2019-03-28T11:27:54.956Z,13.60
2019-03-28T11:30:25.677Z,13.40
2019-03-28T11:32:55.342Z,13.40
2019-03-28T11:35:25.970Z,13.30
2019-03-28T11:37:55.403Z,13.30
2019-03-28T11:40:24.898Z,13.30
2019-03-28T11:42:54.451Z,13.40
2019-03-28T11:45:26.848Z,13.50
2019-03-28T11:47:55.250Z,13.50
2019-03-28T11:50:26.131Z,13.70
2019-03-28T11:52:56.976Z,13.80
2019-03-28T11:55:26.842Z,13.50
2019-03-28T11:57:58.015Z,13.40
2019-03-28T12:00:29.617Z,13.60
2019-03-28T12:02:59.388Z,13.70
2019-03-28T12:05:28.937Z,13.80
2019-03-28T12:07:58.434Z,13.60
2019-03-28T12:10:27.942Z,13.30
2019-03-28T12:12:58.434Z,13.10
2019-03-28T12:15:27.930Z,12.90
2019-03-28T12:17:57.362Z,13.00
2019-03-28T12:20:26.933Z,12.90
2019-03-28T12:22:56.562Z,12.90
2019-03-28T12:25:26.026Z,12.90
2019-03-28T12:27:56.279Z,13.10
2019-03-28T12:30:27.522Z,13.00
2019-03-28T12:32:57.058Z,13.20
2019-03-28T12:35:26.532Z,13.40
2019-03-28T12:37:57.698Z,13.70
2019-03-28T12:40:27.153Z,13.80
2019-03-28T12:42:57.368Z,13.90
2019-03-28T12:45:26.899Z,14.20
2019-03-28T12:47:56.517Z,14.50
2019-03-28T12:50:25.977Z,15.10
2019-03-28T12:52:58.404Z,15.00
2019-03-28T12:55:28.978Z,14.90
2019-03-28T12:57:58.503Z,14.70
2019-03-28T13:00:35.093Z,14.50
2019-03-28T13:03:05.383Z,14.50
2019-03-28T13:05:35.192Z,14.50
2019-03-28T13:08:05.241Z,14.60
2019-03-28T13:10:34.960Z,14.40
2019-03-28T13:13:05.570Z,14.50
2019-03-28T13:15:35.108Z,14.10
2019-03-28T13:18:04.854Z,14.20
2019-03-28T13:20:34.306Z,14.20
2019-03-28T13:23:04.164Z,14.60
2019-03-28T13:25:33.782Z,15.10
2019-03-28T13:28:03.474Z,15.20
2019-03-28T13:30:33.265Z,15.00
2019-03-28T13:33:02.786Z,14.60
2019-03-28T13:35:35.295Z,14.20
2019-03-28T13:38:04.272Z,14.30
2019-03-28T13:40:33.622Z,14.20
2019-03-28T13:43:03.220Z,14.10
2019-03-28T13:45:32.688Z,14.00
2019-03-28T13:48:02.276Z,13.80
2019-03-28T13:50:31.717Z,13.50
2019-03-28T13:53:02.130Z,13.10
2019-03-28T13:55:31.538Z,12.90
2019-03-28T13:58:00.937Z,12.70
2019-03-28T14:00:32.980Z,12.40
2019-03-28T14:03:02.789Z,12.40
2019-03-28T14:05:32.287Z,12.40
2019-03-28T14:08:01.986Z,12.30
2019-03-28T14:10:31.647Z,12.40
2019-03-28T14:13:01.088Z,12.20
2019-03-28T14:15:30.527Z,12.30
2019-03-28T14:17:59.906Z,12.30
2019-03-28T14:20:29.284Z,12.40
2019-03-28T14:22:58.738Z,12.50
2019-03-28T14:25:28.264Z,12.60
2019-03-28T14:27:57.815Z,12.50
2019-03-28T14:30:27.253Z,12.50
2019-03-28T14:33:10.455Z,12.60
2019-03-28T14:35:29.604Z,12.60
2019-03-28T14:37:59.042Z,12.70
2019-03-28T14:40:28.740Z,12.80
2019-03-28T14:42:58.283Z,12.80
2019-03-28T14:45:29.405Z,12.90
2019-03-28T14:47:59.565Z,12.90
2019-03-28T14:50:40.163Z,13.10
2019-03-28T14:53:09.788Z,13.20
2019-03-28T14:55:39.346Z,13.10
2019-03-28T14:58:09.113Z,13.10
2019-03-28T15:00:47.286Z,12.90
2019-03-28T15:03:26.350Z,12.80
2019-03-28T15:05:49.572Z,12.80
2019-03-28T15:08:19.260Z,12.90
2019-03-28T15:10:48.777Z,13.00
2019-03-28T15:13:18.285Z,12.80
2019-03-28T15:15:48.814Z,12.80
2019-03-28T15:18:18.565Z,12.70
2019-03-28T15:20:47.991Z,12.80
2019-03-28T15:23:17.452Z,12.80
2019-03-28T15:25:47.516Z,12.60
2019-03-28T15:28:17.175Z,12.60
2019-03-28T15:30:46.715Z,12.70
2019-03-28T15:33:16.274Z,12.90
2019-03-28T15:35:45.789Z,13.10
2019-03-28T15:38:16.344Z,13.10
2019-03-28T15:40:45.926Z,13.00
2019-03-28T15:43:15.549Z,13.00
2019-03-28T15:45:46.565Z,13.00
2019-03-28T15:48:17.327Z,12.90
2019-03-28T15:50:46.817Z,12.90
2019-03-28T15:53:16.413Z,13.00
2019-03-28T15:55:48.749Z,13.10
2019-03-28T15:58:23.497Z,13.30
2019-03-28T16:00:51.970Z,13.30
2019-03-28T16:03:21.456Z,13.20
2019-03-28T16:05:58.223Z,13.20
2019-03-28T16:08:22.377Z,13.20
2019-03-28T16:10:51.752Z,13.20
2019-03-28T16:13:22.885Z,13.10
2019-03-28T16:15:53.018Z,13.10
2019-03-28T16:18:22.465Z,12.90
2019-03-28T16:20:53.403Z,12.90
2019-03-28T16:23:23.128Z,12.80
2019-03-28T16:25:52.551Z,12.70
2019-03-28T16:28:21.986Z,12.60
2019-03-28T16:30:51.353Z,12.70
2019-03-28T16:33:20.813Z,12.70
2019-03-28T16:35:50.383Z,12.70
2019-03-28T16:38:19.867Z,12.60
2019-03-28T16:40:49.446Z,12.50
2019-03-28T16:43:19.781Z,12.50
2019-03-28T16:45:49.317Z,12.40
2019-03-28T16:48:18.773Z,12.30
2019-03-28T16:50:48.386Z,12.20
2019-03-28T16:53:18.877Z,12.20
2019-03-28T16:55:48.297Z,12.10
2019-03-28T16:58:19.917Z,12.00
2019-03-28T17:00:49.475Z,11.90
2019-03-28T17:03:19.285Z,11.90
2019-03-28T17:05:48.632Z,11.80
2019-03-28T17:08:18.875Z,11.70
2019-03-28T17:10:49.764Z,11.60
2019-03-28T17:13:20.384Z,11.50
2019-03-28T17:15:51.028Z,11.50
2019-03-28T17:18:20.897Z,11.50
2019-03-28T17:20:50.628Z,11.40
2019-03-28T17:23:21.567Z,11.30
2019-03-28T17:25:51.002Z,11.30
2019-03-28T17:28:20.879Z,11.20
2019-03-28T17:30:50.726Z,11.00
2019-03-28T17:33:20.218Z,10.90
2019-03-28T17:35:49.725Z,10.70
2019-03-28T17:38:19.344Z,10.60
2019-03-28T17:40:48.868Z,10.40
2019-03-28T17:43:18.437Z,10.30
2019-03-28T17:45:47.920Z,10.20
2019-03-28T17:48:18.261Z,10.00
2019-03-28T17:50:47.765Z,9.90
2019-03-28T17:53:17.276Z,9.80
2019-03-28T17:55:46.737Z,9.70
2019-03-28T17:58:16.453Z,9.60
2019-03-28T18:00:46.775Z,9.50
2019-03-28T18:03:30.612Z,9.30
2019-03-28T18:05:58.099Z,9.20
2019-03-28T18:08:20.191Z,9.20
2019-03-28T18:10:49.644Z,9.10
2019-03-28T18:13:19.152Z,9.00
2019-03-28T18:15:48.531Z,8.80
2019-03-28T18:18:17.901Z,8.80
2019-03-28T18:20:48.368Z,8.70
2019-03-28T18:23:18.085Z,8.50
2019-03-28T18:25:47.481Z,8.50
2019-03-28T18:28:17.008Z,8.50
2019-03-28T18:30:46.357Z,8.40
2019-03-28T18:33:15.833Z,8.30
2019-03-28T18:35:45.351Z,8.20
2019-03-28T18:38:14.819Z,8.10
2019-03-28T18:40:44.530Z,8.10
2019-03-28T18:43:14.073Z,8.00
2019-03-28T18:45:43.589Z,8.00
2019-03-28T18:48:27.010Z,7.90
2019-03-28T18:50:44.053Z,7.80
2019-03-28T18:53:13.569Z,7.70
2019-03-28T18:55:43.144Z,7.60
2019-03-28T18:58:12.610Z,7.50
2019-03-28T19:00:42.237Z,7.50
2019-03-28T19:03:11.686Z,7.50
2019-03-28T19:05:41.910Z,7.40
2019-03-28T19:08:11.389Z,7.30
2019-03-28T19:10:40.858Z,7.30
2019-03-28T19:13:10.380Z,7.20
2019-03-28T19:15:39.806Z,7.20
2019-03-28T19:18:09.277Z,7.10
2019-03-28T19:20:38.830Z,7.10
2019-03-28T19:23:08.603Z,7.20
2019-03-28T19:25:38.202Z,7.20
2019-03-28T19:28:08.062Z,7.20
2019-03-28T19:30:38.648Z,7.20
2019-03-28T19:33:08.785Z,7.20
2019-03-28T19:35:40.108Z,7.10
2019-03-28T19:38:09.933Z,7.10
2019-03-28T19:40:39.492Z,7.10
2019-03-28T19:43:19.906Z,7.10
2019-03-28T19:45:41.252Z,7.10
2019-03-28T19:48:10.792Z,7.10
2019-03-28T19:50:40.326Z,7.20
2019-03-28T19:53:11.886Z,7.20
2019-03-28T19:55:41.579Z,7.20
2019-03-28T19:58:13.595Z,7.20
2019-03-28T20:00:42.308Z,7.10
2019-03-28T20:03:11.833Z,7.00
2019-03-28T20:05:47.316Z,6.90
2019-03-28T20:08:15.887Z,6.80
2019-03-28T20:10:44.867Z,6.80
2019-03-28T20:13:14.589Z,6.70
2019-03-28T20:15:44.172Z,6.60
2019-03-28T20:18:15.187Z,6.60
2019-03-28T20:20:45.011Z,6.60
2019-03-28T20:23:14.674Z,6.50
2019-03-28T20:25:44.390Z,6.40
2019-03-28T20:28:14.589Z,6.30
2019-03-28T20:30:44.650Z,6.40
2019-03-28T20:33:14.156Z,6.50
2019-03-28T20:35:43.884Z,6.50
2019-03-28T20:38:13.429Z,6.50
2019-03-28T20:40:43.537Z,6.50
2019-03-28T20:43:14.231Z,6.50
2019-03-28T20:45:43.752Z,6.40
2019-03-28T20:48:13.278Z,6.30
2019-03-28T20:50:42.657Z,6.20
2019-03-28T20:53:12.308Z,6.20
2019-03-28T20:55:42.427Z,6.30
2019-03-28T20:58:11.834Z,6.30
2019-03-28T21:00:43.608Z,6.30
2019-03-28T21:03:15.021Z,6.20
2019-03-28T21:05:46.329Z,6.20
2019-03-28T21:08:15.966Z,6.10
2019-03-28T21:10:47.178Z,6.10
2019-03-28T21:13:16.713Z,6.00
2019-03-28T21:15:46.213Z,6.10
2019-03-28T21:18:15.684Z,6.20
2019-03-28T21:20:45.132Z,6.20
2019-03-28T21:23:14.678Z,6.10
2019-03-28T21:25:44.181Z,6.00
2019-03-28T21:28:14.074Z,5.90
2019-03-28T21:30:47.478Z,5.90
2019-03-28T21:33:15.564Z,5.80
2019-03-28T21:35:44.914Z,5.70
2019-03-28T21:38:14.438Z,5.80
2019-03-28T21:40:44.577Z,5.80
2019-03-28T21:43:15.146Z,5.70
2019-03-28T21:45:44.587Z,5.70
2019-03-28T21:48:13.972Z,5.60
2019-03-28T21:50:43.839Z,5.60
2019-03-28T21:53:13.277Z,5.60
2019-03-28T21:55:54.459Z,5.70
2019-03-28T21:58:14.058Z,5.60
2019-03-28T22:00:43.471Z,5.60
2019-03-28T22:03:12.979Z,5.50
2019-03-28T22:05:42.592Z,5.40
2019-03-28T22:08:12.034Z,5.30
2019-03-28T22:10:41.485Z,5.30
2019-03-28T22:13:12.316Z,5.30
2019-03-28T22:15:42.018Z,5.40
2019-03-28T22:18:11.497Z,5.40
2019-03-28T22:20:40.921Z,5.50
2019-03-28T22:23:13.449Z,5.30
2019-03-28T22:25:41.720Z,5.40
2019-03-28T22:28:12.717Z,5.40
2019-03-28T22:30:42.252Z,5.40
2019-03-28T22:33:11.707Z,5.30
2019-03-28T22:35:41.322Z,5.20
2019-03-28T22:38:10.900Z,5.20
2019-03-28T22:40:43.581Z,5.20
2019-03-28T22:43:11.620Z,5.20
2019-03-28T22:45:40.984Z,5.10
2019-03-28T22:48:11.512Z,5.00
2019-03-28T22:50:41.830Z,5.00
2019-03-28T22:53:11.288Z,5.00
2019-03-28T22:55:40.722Z,5.00
2019-03-28T22:58:10.468Z,5.00
2019-03-28T23:00:41.945Z,5.00
2019-03-28T23:03:13.897Z,5.00
2019-03-28T23:05:43.692Z,5.00
2019-03-28T23:08:13.188Z,5.10
2019-03-28T23:10:42.798Z,5.00
2019-03-28T23:13:15.321Z,5.00
2019-03-28T23:15:46.389Z,5.00
2019-03-28T23:18:16.082Z,4.90
2019-03-28T23:20:45.575Z,4.80
2019-03-28T23:23:15.029Z,4.80
2019-03-28T23:25:44.631Z,4.70
2019-03-28T23:28:14.332Z,4.70
2019-03-28T23:30:43.870Z,4.70
2019-03-28T23:33:13.404Z,4.70
2019-03-28T23:35:42.850Z,4.70
2019-03-28T23:38:12.298Z,4.70
2019-03-28T23:40:41.887Z,4.70
2019-03-28T23:43:11.418Z,4.60
2019-03-28T23:45:40.867Z,4.70
2019-03-28T23:48:10.470Z,4.60
2019-03-28T23:50:39.927Z,4.60
2019-03-28T23:53:09.502Z,4.60
2019-03-28T23:55:38.990Z,4.50
2019-03-28T23:58:09.947Z,4.40
